createdAt,value
2023-04-11T00:03:19.602Z,20.83
2023-04-11T00:08:41.528Z,21.17
2023-04-11T00:14:03.426Z,20.05
2023-04-11T00:19:25.251Z,18.60
2023-04-11T00:24:47.073Z,20.00
2023-04-11T00:30:09.208Z,19.27
2023-04-11T00:35:31.063Z,18.70
2023-04-11T00:40:52.865Z,17.95
2023-04-11T00:46:16.045Z,16.55
2023-04-11T00:51:38.092Z,16.85
2023-04-11T00:57:01.072Z,14.38
2023-04-11T01:02:22.972Z,13.63
2023-04-11T01:07:48.676Z,13.27
2023-04-11T01:13:11.212Z,13.70
2023-04-11T01:18:33.260Z,13.20
2023-04-11T01:23:55.733Z,12.77
2023-04-11T01:29:17.617Z,13.73
2023-04-11T01:34:40.542Z,12.65
2023-04-11T01:40:02.694Z,12.90
2023-04-11T01:45:26.362Z,14.10
2023-04-11T01:50:49.451Z,13.63
2023-04-11T01:56:11.833Z,13.45
2023-04-11T02:01:34.447Z,13.10
2023-04-11T02:06:56.289Z,13.23
2023-04-11T02:12:18.116Z,12.63
2023-04-11T02:17:39.975Z,12.68
2023-04-11T02:23:01.869Z,12.75
2023-04-11T02:28:23.835Z,12.88
2023-04-11T02:33:45.690Z,14.32
2023-04-11T02:39:07.713Z,15.10
2023-04-11T02:44:29.537Z,14.00
2023-04-11T02:49:51.347Z,14.25
2023-04-11T02:55:13.189Z,14.15
2023-04-11T03:00:35.031Z,14.00
2023-04-11T03:05:56.851Z,13.68
2023-04-11T03:11:18.666Z,13.93
2023-04-11T03:16:40.514Z,14.20
2023-04-11T03:22:02.406Z,14.45
2023-04-11T03:27:24.220Z,14.68
2023-04-11T03:32:46.228Z,14.40
2023-04-11T03:38:08.054Z,14.55
2023-04-11T03:43:29.904Z,13.15
2023-04-11T03:48:51.747Z,13.75
2023-04-11T03:54:13.568Z,13.00
2023-04-11T03:59:35.414Z,12.77
2023-04-11T04:04:57.246Z,12.38
2023-04-11T04:10:19.094Z,12.60
2023-04-11T04:15:40.878Z,12.05
2023-04-11T04:21:02.726Z,10.52
2023-04-11T04:26:24.589Z,10.80
2023-04-11T04:31:46.465Z,10.63
2023-04-11T04:37:08.345Z,10.25
2023-04-11T04:42:30.283Z,10.45
2023-04-11T04:47:52.167Z,9.85
2023-04-11T04:53:14.012Z,9.77
2023-04-11T04:58:35.834Z,9.77
2023-04-11T05:03:57.894Z,9.55
2023-04-11T05:09:20.038Z,9.13
2023-04-11T05:14:42.281Z,9.35
2023-04-11T05:20:04.693Z,9.05
2023-04-11T05:25:26.543Z,8.80
2023-04-11T05:30:48.370Z,8.70
2023-04-11T05:36:10.613Z,8.75
2023-04-11T05:41:32.519Z,8.05
2023-04-11T05:46:54.318Z,8.25
2023-04-11T05:52:16.131Z,8.63
2023-04-11T05:57:38.003Z,9.48
2023-04-11T06:03:00.304Z,8.63
2023-04-11T06:08:22.395Z,9.20
2023-04-11T06:13:44.208Z,9.25
2023-04-11T06:19:06.061Z,8.88
2023-04-11T06:24:38.932Z,8.27
2023-04-11T06:30:00.812Z,9.00
2023-04-11T06:35:22.727Z,9.18
2023-04-11T06:40:44.523Z,8.23
2023-04-11T06:46:06.559Z,8.88
2023-04-11T06:51:28.495Z,8.88
2023-04-11T06:56:50.400Z,7.70
2023-04-11T07:02:12.272Z,7.00
2023-04-11T07:07:34.163Z,5.88
2023-04-11T07:12:56.020Z,5.13
2023-04-11T07:18:17.889Z,5.70
2023-04-11T07:23:40.253Z,5.72
2023-04-11T07:29:02.072Z,5.55
2023-04-11T07:34:24.101Z,5.63
2023-04-11T07:39:45.897Z,5.03
2023-04-11T07:45:08.382Z,5.05
2023-04-11T07:50:30.177Z,5.88
2023-04-11T07:55:51.997Z,4.22
2023-04-11T08:01:24.559Z,4.38
2023-04-11T08:06:46.356Z,3.65
2023-04-11T08:12:09.232Z,3.70
2023-04-11T08:17:31.150Z,3.30
2023-04-11T08:22:53.040Z,4.55
2023-04-11T08:28:14.877Z,3.55
2023-04-11T08:33:36.730Z,3.40
2023-04-11T08:38:58.563Z,3.17
2023-04-11T08:44:20.456Z,2.78
2023-04-11T08:49:42.276Z,2.75
2023-04-11T08:55:04.314Z,2.72
2023-04-11T09:00:27.262Z,3.00
2023-04-11T09:05:49.130Z,2.65
2023-04-11T09:11:10.929Z,2.45
2023-04-11T09:16:32.862Z,2.67
2023-04-11T09:21:57.011Z,2.20
2023-04-11T09:27:19.000Z,2.33
2023-04-11T09:32:40.856Z,2.33
2023-04-11T09:38:02.736Z,2.17
2023-04-11T09:43:24.769Z,2.15
2023-04-11T09:48:48.092Z,2.20
2023-04-11T09:54:10.679Z,2.80
2023-04-11T09:59:35.515Z,1.60
2023-04-11T10:04:58.354Z,2.00
2023-04-11T10:10:24.138Z,3.00
2023-04-11T10:16:05.557Z,2.60
2023-04-11T10:21:30.232Z,3.70
2023-04-11T10:26:54.674Z,3.70
2023-04-11T10:32:16.448Z,3.88
2023-04-11T10:37:38.279Z,5.22
2023-04-11T10:43:19.461Z,3.70
2023-04-11T10:49:01.394Z,4.07
2023-04-11T10:54:26.796Z,3.05
2023-04-11T10:59:51.684Z,3.70
2023-04-11T11:05:17.513Z,3.30
2023-04-11T11:10:45.224Z,3.63
2023-04-11T11:16:08.956Z,2.85
2023-04-11T11:21:31.725Z,3.78
2023-04-11T11:26:54.918Z,3.63
2023-04-11T11:32:24.737Z,10.90
2023-04-11T11:37:46.792Z,3.60
2023-04-11T11:43:08.672Z,4.10
2023-04-11T11:48:30.495Z,3.80
2023-04-11T11:54:05.907Z,4.38
2023-04-11T11:59:27.989Z,4.10
2023-04-11T12:04:50.261Z,4.53
2023-04-11T12:10:17.156Z,3.80
2023-04-11T12:15:40.212Z,3.90
2023-04-11T12:21:02.087Z,4.15
2023-04-11T12:26:23.945Z,4.45
2023-04-11T12:31:46.095Z,7.28
2023-04-11T12:37:08.108Z,5.93
2023-04-11T12:42:29.935Z,6.05
2023-04-11T12:47:52.294Z,7.40
2023-04-11T12:53:14.259Z,5.45
2023-04-11T12:58:36.140Z,5.28
2023-04-11T13:03:58.135Z,5.00
2023-04-11T13:09:20.126Z,5.47
2023-04-11T13:14:42.026Z,5.00
2023-04-11T13:20:04.665Z,5.90
2023-04-11T13:25:26.562Z,6.88
2023-04-11T13:30:48.468Z,6.25
2023-04-11T13:36:10.919Z,6.38
2023-04-11T13:41:32.871Z,6.70
2023-04-11T13:46:54.695Z,6.18
2023-04-11T13:52:16.547Z,5.60
2023-04-11T13:57:38.363Z,4.95
2023-04-11T14:03:00.460Z,4.57
2023-04-11T14:08:22.327Z,5.30
2023-04-11T14:13:44.116Z,5.38
2023-04-11T14:19:05.921Z,5.30
2023-04-11T14:24:28.648Z,5.63
2023-04-11T14:29:50.453Z,4.90
2023-04-11T14:35:12.304Z,5.03
2023-04-11T14:40:34.229Z,5.57
2023-04-11T14:45:56.438Z,4.72
2023-04-11T14:51:18.283Z,4.22
2023-04-11T14:56:40.145Z,4.45
2023-04-11T15:02:02.071Z,4.85
2023-04-11T15:07:23.914Z,4.18
2023-04-11T15:12:46.097Z,4.00
2023-04-11T15:18:37.077Z,3.55
2023-04-11T15:23:58.975Z,4.13
2023-04-11T15:29:20.864Z,3.38
2023-04-11T15:34:42.753Z,3.88
2023-04-11T15:40:05.007Z,7.18
2023-04-11T15:45:26.850Z,3.60
2023-04-11T15:50:48.809Z,4.13
2023-04-11T15:56:11.153Z,3.55
2023-04-11T16:01:33.186Z,4.97
2023-04-11T16:06:55.126Z,4.30
2023-04-11T16:12:18.677Z,3.95
2023-04-11T16:17:40.626Z,4.88
2023-04-11T16:23:02.566Z,5.32
2023-04-11T16:28:24.518Z,4.72
2023-04-11T16:33:46.336Z,5.28
2023-04-11T16:39:08.192Z,5.32
2023-04-11T16:44:30.018Z,5.13
2023-04-11T16:49:52.360Z,6.10
2023-04-11T16:55:14.294Z,5.80
2023-04-11T17:00:36.256Z,6.18
2023-04-11T17:05:58.231Z,5.82
2023-04-11T17:11:20.072Z,6.05
2023-04-11T17:16:42.351Z,5.45
2023-04-11T17:22:04.144Z,5.78
2023-04-11T17:27:25.937Z,6.07
2023-04-11T17:32:48.436Z,5.60
2023-04-11T17:38:10.677Z,6.63
2023-04-11T17:43:32.921Z,6.50
2023-04-11T17:48:54.797Z,6.20
2023-04-11T18:00:36.748Z,6.43
2023-04-11T18:06:03.554Z,6.32
2023-04-11T18:11:25.488Z,6.32
2023-04-11T18:16:47.352Z,7.00
2023-04-11T18:22:09.298Z,6.90
2023-04-11T18:27:32.294Z,7.88
2023-04-11T18:32:54.276Z,7.85
2023-04-11T18:38:16.202Z,7.32
2023-04-11T18:43:38.922Z,8.73
2023-04-11T18:49:01.215Z,8.00
2023-04-11T18:54:23.037Z,8.75
2023-04-11T18:59:46.379Z,8.70
2023-04-11T19:05:11.202Z,8.48
2023-04-11T19:10:33.286Z,8.77
2023-04-11T19:15:55.378Z,8.55
2023-04-11T19:21:17.236Z,8.18
2023-04-11T19:26:39.076Z,8.18
2023-04-11T19:32:01.080Z,8.60
2023-04-11T19:37:22.953Z,9.27
2023-04-11T19:42:45.228Z,8.85
2023-04-11T19:48:07.102Z,9.48
2023-04-11T19:53:29.041Z,9.25
2023-04-11T19:58:50.955Z,9.38
2023-04-11T20:04:12.970Z,8.88
2023-04-11T20:09:34.887Z,9.93
2023-04-11T20:14:56.781Z,9.68
2023-04-11T20:20:19.928Z,10.10
2023-04-11T20:25:42.363Z,9.65
2023-04-11T20:31:04.388Z,10.73
2023-04-11T20:36:26.368Z,11.02
2023-04-11T20:41:48.514Z,12.32
2023-04-11T20:47:10.345Z,12.23
2023-04-11T20:52:32.314Z,11.95
2023-04-11T20:57:54.200Z,13.82
2023-04-11T21:03:16.172Z,12.20
2023-04-11T21:08:38.122Z,12.27
2023-04-11T21:13:59.957Z,13.32
2023-04-11T21:19:21.805Z,12.80
2023-04-11T21:24:43.639Z,13.10
2023-04-11T21:30:06.037Z,13.07
2023-04-11T21:35:28.117Z,13.30
2023-04-11T21:40:49.921Z,12.73
2023-04-11T21:46:11.804Z,12.38
2023-04-11T21:51:33.620Z,11.82
2023-04-11T21:56:55.399Z,11.20
2023-04-11T22:02:17.282Z,11.85
2023-04-11T22:07:39.353Z,12.55
2023-04-11T22:13:01.262Z,12.75
2023-04-11T22:18:23.072Z,13.20
2023-04-11T22:23:51.950Z,13.50
2023-04-11T22:29:13.845Z,14.48
2023-04-11T22:34:35.781Z,13.98
2023-04-11T22:39:57.649Z,13.82
2023-04-11T22:45:20.716Z,14.05
2023-04-11T22:50:43.410Z,14.77
2023-04-11T22:56:05.557Z,13.98
2023-04-11T23:01:27.481Z,14.98
2023-04-11T23:06:50.549Z,15.15
2023-04-11T23:12:12.504Z,15.10
2023-04-11T23:17:34.321Z,14.35
2023-04-11T23:22:56.118Z,13.52
2023-04-11T23:28:17.921Z,12.93
2023-04-11T23:33:39.734Z,12.32
2023-04-11T23:39:01.548Z,12.30
2023-04-11T23:44:23.475Z,13.50
2023-04-11T23:49:45.313Z,13.15
2023-04-11T23:55:07.893Z,14.40
